sensor_id;sensor_type;location;lat;lon;timestamp;P1;durP1;ratioP1;P2;durP2;ratioP2
75935;SDS011;64614;32.062;34.834;2023-03-08T00:02:55;17.83;;;8.52;;
75935;SDS011;64614;32.062;34.834;2023-03-08T00:10:33;16.40;;;8.13;;
75935;SDS011;64614;32.062;34.834;2023-03-08T00:15:35;14.35;;;7.47;;
75935;SDS011;64614;32.062;34.834;2023-03-08T00:18:02;15.05;;;7.57;;
75935;SDS011;64614;32.062;34.834;2023-03-08T00:25:38;13.85;;;7.40;;
75935;SDS011;64614;32.062;34.834;2023-03-08T00:28:04;16.35;;;7.57;;
75935;SDS011;64614;32.062;34.834;2023-03-08T00:30:30;13.90;;;7.13;;
75935;SDS011;64614;32.062;34.834;2023-03-08T00:38:06;13.40;;;6.70;;
75935;SDS011;64614;32.062;34.834;2023-03-08T00:40:32;15.10;;;7.28;;
75935;SDS011;64614;32.062;34.834;2023-03-08T00:42:58;13.80;;;6.60;;
75935;SDS011;64614;32.062;34.834;2023-03-08T00:48:00;13.07;;;6.55;;
75935;SDS011;64614;32.062;34.834;2023-03-08T00:55:26;13.40;;;6.13;;
75935;SDS011;64614;32.062;34.834;2023-03-08T00:57:54;11.18;;;5.43;;
75935;SDS011;64614;32.062;34.834;2023-03-08T01:00:20;12.57;;;6.05;;
75935;SDS011;64614;32.062;34.834;2023-03-08T01:02:46;11.43;;;5.47;;
75935;SDS011;64614;32.062;34.834;2023-03-08T01:05:12;11.27;;;5.60;;
75935;SDS011;64614;32.062;34.834;2023-03-08T01:07:38;11.57;;;5.68;;
75935;SDS011;64614;32.062;34.834;2023-03-08T01:10:04;12.73;;;5.93;;
75935;SDS011;64614;32.062;34.834;2023-03-08T01:22:40;9.25;;;4.50;;
75935;SDS011;64614;32.062;34.834;2023-03-08T01:25:06;9.95;;;4.97;;
75935;SDS011;64614;32.062;34.834;2023-03-08T01:27:32;10.23;;;5.15;;
75935;SDS011;64614;32.062;34.834;2023-03-08T01:29:58;10.88;;;5.00;;
75935;SDS011;64614;32.062;34.834;2023-03-08T01:37:34;8.68;;;4.55;;
75935;SDS011;64614;32.062;34.834;2023-03-08T01:50:49;9.68;;;4.10;;
75935;SDS011;64614;32.062;34.834;2023-03-08T01:55:50;9.15;;;4.47;;
75935;SDS011;64614;32.062;34.834;2023-03-08T01:58:16;9.43;;;4.05;;
75935;SDS011;64614;32.062;34.834;2023-03-08T02:00:42;9.68;;;4.45;;
75935;SDS011;64614;32.062;34.834;2023-03-08T02:03:08;9.00;;;4.30;;
75935;SDS011;64614;32.062;34.834;2023-03-08T02:08:10;6.93;;;3.38;;
75935;SDS011;64614;32.062;34.834;2023-03-08T02:13:11;8.80;;;3.30;;
75935;SDS011;64614;32.062;34.834;2023-03-08T02:15:38;9.48;;;3.88;;
75935;SDS011;64614;32.062;34.834;2023-03-08T02:18:04;7.07;;;3.55;;
75935;SDS011;64614;32.062;34.834;2023-03-08T02:20:37;9.15;;;3.90;;
75935;SDS011;64614;32.062;34.834;2023-03-08T02:28:23;8.13;;;3.83;;
75935;SDS011;64614;32.062;34.834;2023-03-08T02:33:27;8.88;;;3.85;;
75935;SDS011;64614;32.062;34.834;2023-03-08T02:35:54;7.57;;;3.38;;
75935;SDS011;64614;32.062;34.834;2023-03-08T02:43:25;8.23;;;3.50;;
75935;SDS011;64614;32.062;34.834;2023-03-08T02:45:57;7.85;;;3.45;;
75935;SDS011;64614;32.062;34.834;2023-03-08T02:48:23;8.43;;;3.30;;
75935;SDS011;64614;32.062;34.834;2023-03-08T02:53:26;8.23;;;3.20;;
75935;SDS011;64614;32.062;34.834;2023-03-08T02:55:52;7.68;;;3.45;;
75935;SDS011;64614;32.062;34.834;2023-03-08T03:01:10;7.00;;;3.15;;
75935;SDS011;64614;32.062;34.834;2023-03-08T03:03:39;6.90;;;3.15;;
75935;SDS011;64614;32.062;34.834;2023-03-08T03:06:12;7.82;;;3.10;;
75935;SDS011;64614;32.062;34.834;2023-03-08T03:08:40;7.65;;;3.08;;
75935;SDS011;64614;32.062;34.834;2023-03-08T03:16:07;7.80;;;3.22;;
75935;SDS011;64614;32.062;34.834;2023-03-08T03:18:35;6.75;;;2.80;;
75935;SDS011;64614;32.062;34.834;2023-03-08T03:21:06;5.93;;;2.80;;
75935;SDS011;64614;32.062;34.834;2023-03-08T03:23:36;7.35;;;2.90;;
75935;SDS011;64614;32.062;34.834;2023-03-08T03:26:03;6.18;;;2.70;;
75935;SDS011;64614;32.062;34.834;2023-03-08T03:28:37;6.65;;;2.90;;
75935;SDS011;64614;32.062;34.834;2023-03-08T03:31:10;5.97;;;2.65;;
75935;SDS011;64614;32.062;34.834;2023-03-08T03:33:38;6.47;;;2.63;;
75935;SDS011;64614;32.062;34.834;2023-03-08T03:36:03;6.50;;;2.60;;
75935;SDS011;64614;32.062;34.834;2023-03-08T03:38:32;7.43;;;2.83;;
75935;SDS011;64614;32.062;34.834;2023-03-08T03:41:03;8.30;;;2.65;;
75935;SDS011;64614;32.062;34.834;2023-03-08T03:43:33;5.82;;;2.38;;
75935;SDS011;64614;32.062;34.834;2023-03-08T03:48:34;6.78;;;2.80;;
75935;SDS011;64614;32.062;34.834;2023-03-08T03:51:02;6.10;;;2.50;;
75935;SDS011;64614;32.062;34.834;2023-03-08T03:53:30;7.53;;;2.60;;
75935;SDS011;64614;32.062;34.834;2023-03-08T03:56:09;5.82;;;2.88;;
75935;SDS011;64614;32.062;34.834;2023-03-08T04:03:48;7.22;;;2.58;;
75935;SDS011;64614;32.062;34.834;2023-03-08T04:06:17;6.50;;;2.70;;
75935;SDS011;64614;32.062;34.834;2023-03-08T04:08:44;6.80;;;2.40;;
75935;SDS011;64614;32.062;34.834;2023-03-08T04:19:02;5.55;;;2.25;;
75935;SDS011;64614;32.062;34.834;2023-03-08T04:21:30;4.65;;;1.90;;
75935;SDS011;64614;32.062;34.834;2023-03-08T04:23:57;5.57;;;2.30;;
75935;SDS011;64614;32.062;34.834;2023-03-08T04:34:08;6.70;;;2.20;;
75935;SDS011;64614;32.062;34.834;2023-03-08T04:36:35;6.07;;;2.20;;
75935;SDS011;64614;32.062;34.834;2023-03-08T04:41:28;6.78;;;2.08;;
75935;SDS011;64614;32.062;34.834;2023-03-08T04:43:55;7.22;;;2.15;;
75935;SDS011;64614;32.062;34.834;2023-03-08T04:51:25;6.07;;;2.22;;
75935;SDS011;64614;32.062;34.834;2023-03-08T04:53:51;6.72;;;2.50;;
75935;SDS011;64614;32.062;34.834;2023-03-08T04:56:17;6.13;;;2.28;;
75935;SDS011;64614;32.062;34.834;2023-03-08T04:58:44;6.85;;;2.60;;
75935;SDS011;64614;32.062;34.834;2023-03-08T05:01:18;8.43;;;2.53;;
75935;SDS011;64614;32.062;34.834;2023-03-08T05:03:46;7.30;;;2.25;;
75935;SDS011;64614;32.062;34.834;2023-03-08T05:06:13;7.57;;;2.67;;
75935;SDS011;64614;32.062;34.834;2023-03-08T05:08:39;8.02;;;2.80;;
75935;SDS011;64614;32.062;34.834;2023-03-08T05:11:05;9.25;;;2.65;;
75935;SDS011;64614;32.062;34.834;2023-03-08T05:13:32;8.40;;;2.80;;
75935;SDS011;64614;32.062;34.834;2023-03-08T05:16:04;10.05;;;2.90;;
75935;SDS011;64614;32.062;34.834;2023-03-08T05:18:31;11.65;;;3.25;;
75935;SDS011;64614;32.062;34.834;2023-03-08T05:23:25;10.85;;;3.10;;
75935;SDS011;64614;32.062;34.834;2023-03-08T05:29:23;9.55;;;2.88;;
75935;SDS011;64614;32.062;34.834;2023-03-08T05:31:50;8.82;;;2.65;;
75935;SDS011;64614;32.062;34.834;2023-03-08T05:34:16;9.15;;;3.45;;
75935;SDS011;64614;32.062;34.834;2023-03-08T05:36:51;10.60;;;2.85;;
75935;SDS011;64614;32.062;34.834;2023-03-08T05:39:18;11.40;;;3.25;;
75935;SDS011;64614;32.062;34.834;2023-03-08T05:41:44;8.85;;;2.53;;
75935;SDS011;64614;32.062;34.834;2023-03-08T05:46:48;8.02;;;2.35;;
75935;SDS011;64614;32.062;34.834;2023-03-08T05:49:14;7.57;;;2.55;;
75935;SDS011;64614;32.062;34.834;2023-03-08T05:51:40;6.85;;;2.50;;
75935;SDS011;64614;32.062;34.834;2023-03-08T05:54:07;6.90;;;2.33;;
75935;SDS011;64614;32.062;34.834;2023-03-08T05:56:33;7.25;;;2.50;;
75935;SDS011;64614;32.062;34.834;2023-03-08T06:09:37;5.07;;;1.98;;
75935;SDS011;64614;32.062;34.834;2023-03-08T06:12:04;6.28;;;1.95;;
75935;SDS011;64614;32.062;34.834;2023-03-08T06:14:30;8.60;;;2.65;;
75935;SDS011;64614;32.062;34.834;2023-03-08T06:16:55;11.90;;;4.70;;
75935;SDS011;64614;32.062;34.834;2023-03-08T06:19:22;17.48;;;7.38;;
75935;SDS011;64614;32.062;34.834;2023-03-08T06:21:48;21.92;;;8.02;;
75935;SDS011;64614;32.062;34.834;2023-03-08T06:26:49;16.15;;;6.40;;
75935;SDS011;64614;32.062;34.834;2023-03-08T06:29:15;22.02;;;8.68;;
75935;SDS011;64614;32.062;34.834;2023-03-08T06:34:19;28.77;;;12.68;;
75935;SDS011;64614;32.062;34.834;2023-03-08T06:36:45;22.27;;;10.80;;
75935;SDS011;64614;32.062;34.834;2023-03-08T06:39:11;23.85;;;11.15;;
75935;SDS011;64614;32.062;34.834;2023-03-08T06:44:12;22.42;;;10.55;;
75935;SDS011;64614;32.062;34.834;2023-03-08T06:46:39;17.70;;;8.93;;
75935;SDS011;64614;32.062;34.834;2023-03-08T06:49:09;17.05;;;8.07;;
75935;SDS011;64614;32.062;34.834;2023-03-08T06:51:34;19.45;;;8.20;;
75935;SDS011;64614;32.062;34.834;2023-03-08T06:54:04;15.32;;;6.50;;
75935;SDS011;64614;32.062;34.834;2023-03-08T07:13:32;5.97;;;1.95;;
75935;SDS011;64614;32.062;34.834;2023-03-08T07:15:58;3.50;;;1.30;;
75935;SDS011;64614;32.062;34.834;2023-03-08T07:18:24;5.53;;;1.58;;
75935;SDS011;64614;32.062;34.834;2023-03-08T07:20:50;4.18;;;1.70;;
75935;SDS011;64614;32.062;34.834;2023-03-08T07:28:25;5.57;;;1.42;;
75935;SDS011;64614;32.062;34.834;2023-03-08T07:33:26;3.45;;;1.45;;
75935;SDS011;64614;32.062;34.834;2023-03-08T07:35:52;5.50;;;1.50;;
75935;SDS011;64614;32.062;34.834;2023-03-08T07:38:17;5.05;;;1.40;;
75935;SDS011;64614;32.062;34.834;2023-03-08T07:40:43;2.95;;;1.35;;
75935;SDS011;64614;32.062;34.834;2023-03-08T07:43:09;4.95;;;1.55;;
75935;SDS011;64614;32.062;34.834;2023-03-08T07:45:36;6.68;;;1.67;;
75935;SDS011;64614;32.062;34.834;2023-03-08T07:48:04;3.17;;;1.40;;
75935;SDS011;64614;32.062;34.834;2023-03-08T07:50:30;4.95;;;1.35;;
75935;SDS011;64614;32.062;34.834;2023-03-08T07:52:59;3.30;;;1.20;;
75935;SDS011;64614;32.062;34.834;2023-03-08T07:55:25;3.67;;;1.40;;
75935;SDS011;64614;32.062;34.834;2023-03-08T07:57:51;2.42;;;1.00;;
75935;SDS011;64614;32.062;34.834;2023-03-08T08:00:17;3.45;;;1.48;;
75935;SDS011;64614;32.062;34.834;2023-03-08T08:02:45;4.63;;;1.30;;
75935;SDS011;64614;32.062;34.834;2023-03-08T08:05:12;3.33;;;1.10;;
75935;SDS011;64614;32.062;34.834;2023-03-08T08:07:40;3.22;;;1.40;;
75935;SDS011;64614;32.062;34.834;2023-03-08T08:15:16;2.95;;;1.25;;
75935;SDS011;64614;32.062;34.834;2023-03-08T08:17:43;2.78;;;1.27;;
75935;SDS011;64614;32.062;34.834;2023-03-08T08:20:09;2.88;;;1.17;;
75935;SDS011;64614;32.062;34.834;2023-03-08T08:22:35;2.97;;;1.17;;
75935;SDS011;64614;32.062;34.834;2023-03-08T08:25:05;4.90;;;1.55;;
75935;SDS011;64614;32.062;34.834;2023-03-08T08:30:06;3.17;;;1.20;;
75935;SDS011;64614;32.062;34.834;2023-03-08T08:32:33;1.92;;;1.05;;
75935;SDS011;64614;32.062;34.834;2023-03-08T08:34:59;3.40;;;1.20;;
75935;SDS011;64614;32.062;34.834;2023-03-08T08:37:25;2.05;;;1.08;;
75935;SDS011;64614;32.062;34.834;2023-03-08T08:39:52;4.25;;;1.25;;
75935;SDS011;64614;32.062;34.834;2023-03-08T08:42:18;2.83;;;1.23;;
75935;SDS011;64614;32.062;34.834;2023-03-08T08:47:20;3.13;;;1.20;;
75935;SDS011;64614;32.062;34.834;2023-03-08T08:49:45;2.75;;;1.10;;
75935;SDS011;64614;32.062;34.834;2023-03-08T08:52:11;2.53;;;1.30;;
75935;SDS011;64614;32.062;34.834;2023-03-08T08:54:38;2.75;;;1.25;;
75935;SDS011;64614;32.062;34.834;2023-03-08T08:57:07;3.10;;;1.42;;
75935;SDS011;64614;32.062;34.834;2023-03-08T09:06:59;4.25;;;1.42;;
75935;SDS011;64614;32.062;34.834;2023-03-08T09:09:25;3.95;;;1.40;;
75935;SDS011;64614;32.062;34.834;2023-03-08T09:14:27;3.45;;;1.30;;
75935;SDS011;64614;32.062;34.834;2023-03-08T09:16:52;2.92;;;1.20;;
75935;SDS011;64614;32.062;34.834;2023-03-08T09:19:18;2.65;;;1.27;;
75935;SDS011;64614;32.062;34.834;2023-03-08T09:21:43;2.97;;;1.20;;
75935;SDS011;64614;32.062;34.834;2023-03-08T09:24:10;4.20;;;1.40;;
75935;SDS011;64614;32.062;34.834;2023-03-08T09:29:12;2.67;;;1.40;;
75935;SDS011;64614;32.062;34.834;2023-03-08T09:31:38;2.97;;;1.40;;
75935;SDS011;64614;32.062;34.834;2023-03-08T09:34:04;3.42;;;1.70;;
75935;SDS011;64614;32.062;34.834;2023-03-08T09:36:34;3.08;;;1.30;;
75935;SDS011;64614;32.062;34.834;2023-03-08T09:39:00;3.67;;;1.40;;
75935;SDS011;64614;32.062;34.834;2023-03-08T09:41:39;4.32;;;1.42;;
75935;SDS011;64614;32.062;34.834;2023-03-08T09:49:22;3.47;;;1.30;;
75935;SDS011;64614;32.062;34.834;2023-03-08T09:54:27;3.28;;;1.30;;
75935;SDS011;64614;32.062;34.834;2023-03-08T09:56:54;4.40;;;1.60;;
75935;SDS011;64614;32.062;34.834;2023-03-08T10:17:56;3.55;;;1.58;;
75935;SDS011;64614;32.062;34.834;2023-03-08T10:20:27;3.85;;;1.63;;
75935;SDS011;64614;32.062;34.834;2023-03-08T10:25:26;4.82;;;1.50;;
75935;SDS011;64614;32.062;34.834;2023-03-08T10:37:02;4.50;;;1.60;;
75935;SDS011;64614;32.062;34.834;2023-03-08T10:39:30;5.07;;;1.42;;
75935;SDS011;64614;32.062;34.834;2023-03-08T10:41:56;2.75;;;1.50;;
75935;SDS011;64614;32.062;34.834;2023-03-08T10:49:27;3.10;;;1.50;;
75935;SDS011;64614;32.062;34.834;2023-03-08T10:51:56;3.15;;;1.48;;
75935;SDS011;64614;32.062;34.834;2023-03-08T11:17:12;4.95;;;1.70;;
75935;SDS011;64614;32.062;34.834;2023-03-08T11:20:03;5.85;;;1.80;;
75935;SDS011;64614;32.062;34.834;2023-03-08T11:26:49;5.07;;;1.70;;
75935;SDS011;64614;32.062;34.834;2023-03-08T11:29:55;3.85;;;1.75;;
75935;SDS011;64614;32.062;34.834;2023-03-08T11:32:55;4.05;;;1.52;;
75935;SDS011;64614;32.062;34.834;2023-03-08T12:14:29;3.03;;;1.25;;
75935;SDS011;64614;32.062;34.834;2023-03-08T12:19:50;3.40;;;1.33;;
75935;SDS011;64614;32.062;34.834;2023-03-08T12:27:45;3.22;;;1.20;;
75935;SDS011;64614;32.062;34.834;2023-03-08T12:41:28;3.75;;;1.48;;
75935;SDS011;64614;32.062;34.834;2023-03-08T12:59:28;4.07;;;1.52;;
75935;SDS011;64614;32.062;34.834;2023-03-08T13:02:01;2.85;;;1.42;;
75935;SDS011;64614;32.062;34.834;2023-03-08T13:04:45;4.15;;;1.33;;
75935;SDS011;64614;32.062;34.834;2023-03-08T13:07:19;2.75;;;1.25;;
75935;SDS011;64614;32.062;34.834;2023-03-08T13:10:02;3.85;;;1.25;;
75935;SDS011;64614;32.062;34.834;2023-03-08T13:15:23;3.33;;;1.30;;
75935;SDS011;64614;32.062;34.834;2023-03-08T13:17:51;1.92;;;1.27;;
75935;SDS011;64614;32.062;34.834;2023-03-08T13:28:18;5.25;;;1.77;;
75935;SDS011;64614;32.062;34.834;2023-03-08T13:30:49;4.30;;;1.50;;
75935;SDS011;64614;32.062;34.834;2023-03-08T13:33:20;6.30;;;1.67;;
75935;SDS011;64614;32.062;34.834;2023-03-08T13:36:02;5.07;;;1.65;;
75935;SDS011;64614;32.062;34.834;2023-03-08T13:38:38;6.47;;;2.03;;
75935;SDS011;64614;32.062;34.834;2023-03-08T13:41:05;3.40;;;1.80;;
75935;SDS011;64614;32.062;34.834;2023-03-08T13:43:31;4.80;;;1.60;;
75935;SDS011;64614;32.062;34.834;2023-03-08T13:45:59;4.35;;;1.80;;
75935;SDS011;64614;32.062;34.834;2023-03-08T13:48:34;3.88;;;1.58;;
75935;SDS011;64614;32.062;34.834;2023-03-08T13:51:01;4.05;;;1.60;;
75935;SDS011;64614;32.062;34.834;2023-03-08T13:53:31;3.78;;;1.60;;
75935;SDS011;64614;32.062;34.834;2023-03-08T13:56:01;7.75;;;1.75;;
75935;SDS011;64614;32.062;34.834;2023-03-08T13:58:30;4.50;;;1.50;;
75935;SDS011;64614;32.062;34.834;2023-03-08T14:01:20;5.38;;;1.67;;
75935;SDS011;64614;32.062;34.834;2023-03-08T14:03:47;2.80;;;1.55;;
75935;SDS011;64614;32.062;34.834;2023-03-08T14:06:17;4.20;;;1.60;;
75935;SDS011;64614;32.062;34.834;2023-03-08T14:11:55;3.33;;;1.60;;
75935;SDS011;64614;32.062;34.834;2023-03-08T14:14:29;4.55;;;1.73;;
75935;SDS011;64614;32.062;34.834;2023-03-08T14:16:57;5.22;;;1.83;;
75935;SDS011;64614;32.062;34.834;2023-03-08T14:22:01;5.22;;;1.88;;
75935;SDS011;64614;32.062;34.834;2023-03-08T14:24:34;4.35;;;1.80;;
75935;SDS011;64614;32.062;34.834;2023-03-08T14:27:02;5.38;;;1.88;;
75935;SDS011;64614;32.062;34.834;2023-03-08T14:29:58;4.78;;;1.90;;
75935;SDS011;64614;32.062;34.834;2023-03-08T14:32:34;4.85;;;1.90;;
75935;SDS011;64614;32.062;34.834;2023-03-08T14:42:46;5.82;;;2.05;;
75935;SDS011;64614;32.062;34.834;2023-03-08T14:45:39;5.03;;;2.00;;
75935;SDS011;64614;32.062;34.834;2023-03-08T14:56:10;3.92;;;1.85;;
75935;SDS011;64614;32.062;34.834;2023-03-08T14:58:44;4.18;;;1.67;;
75935;SDS011;64614;32.062;34.834;2023-03-08T15:03:48;3.05;;;1.50;;
75935;SDS011;64614;32.062;34.834;2023-03-08T15:06:18;4.97;;;1.90;;
75935;SDS011;64614;32.062;34.834;2023-03-08T15:08:46;3.72;;;1.63;;
75935;SDS011;64614;32.062;34.834;2023-03-08T15:11:13;3.58;;;1.63;;
75935;SDS011;64614;32.062;34.834;2023-03-08T15:13:39;2.83;;;1.42;;
75935;SDS011;64614;32.062;34.834;2023-03-08T15:16:06;4.07;;;1.60;;
75935;SDS011;64614;32.062;34.834;2023-03-08T15:21:01;4.03;;;1.67;;
75935;SDS011;64614;32.062;34.834;2023-03-08T15:26:04;4.03;;;1.50;;
75935;SDS011;64614;32.062;34.834;2023-03-08T15:28:31;3.47;;;1.65;;
75935;SDS011;64614;32.062;34.834;2023-03-08T15:30:57;2.22;;;1.50;;
75935;SDS011;64614;32.062;34.834;2023-03-08T15:33:22;2.88;;;1.52;;
75935;SDS011;64614;32.062;34.834;2023-03-08T15:35:49;3.17;;;1.63;;
75935;SDS011;64614;32.062;34.834;2023-03-08T15:38:16;4.78;;;1.70;;
75935;SDS011;64614;32.062;34.834;2023-03-08T15:40:43;3.13;;;1.40;;
75935;SDS011;64614;32.062;34.834;2023-03-08T15:43:10;3.00;;;1.70;;
75935;SDS011;64614;32.062;34.834;2023-03-08T15:45:37;4.45;;;1.60;;
75935;SDS011;64614;32.062;34.834;2023-03-08T15:50:44;3.05;;;1.60;;
75935;SDS011;64614;32.062;34.834;2023-03-08T15:55:46;3.85;;;1.52;;
75935;SDS011;64614;32.062;34.834;2023-03-08T15:58:12;2.75;;;1.60;;
75935;SDS011;64614;32.062;34.834;2023-03-08T16:00:38;3.28;;;1.40;;
75935;SDS011;64614;32.062;34.834;2023-03-08T16:03:03;2.60;;;1.58;;
75935;SDS011;64614;32.062;34.834;2023-03-08T16:05:30;2.53;;;1.63;;
75935;SDS011;64614;32.062;34.834;2023-03-08T16:07:59;8.18;;;2.20;;
75935;SDS011;64614;32.062;34.834;2023-03-08T16:10:31;6.53;;;1.90;;
75935;SDS011;64614;32.062;34.834;2023-03-08T16:13:05;4.85;;;1.80;;
75935;SDS011;64614;32.062;34.834;2023-03-08T16:26:32;5.57;;;2.00;;
75935;SDS011;64614;32.062;34.834;2023-03-08T16:28:58;12.38;;;2.95;;
75935;SDS011;64614;32.062;34.834;2023-03-08T16:31:25;12.40;;;3.60;;
75935;SDS011;64614;32.062;34.834;2023-03-08T17:02:13;20.58;;;5.93;;
75935;SDS011;64614;32.062;34.834;2023-03-08T17:15:58;19.17;;;5.18;;
75935;SDS011;64614;32.062;34.834;2023-03-08T17:18:25;22.20;;;5.40;;
75935;SDS011;64614;32.062;34.834;2023-03-08T17:23:35;15.75;;;4.13;;
75935;SDS011;64614;32.062;34.834;2023-03-08T17:26:04;16.65;;;4.97;;
75935;SDS011;64614;32.062;34.834;2023-03-08T17:28:48;18.67;;;5.05;;
75935;SDS011;64614;32.062;34.834;2023-03-08T17:31:15;17.17;;;4.43;;
75935;SDS011;64614;32.062;34.834;2023-03-08T17:33:42;16.42;;;4.63;;
75935;SDS011;64614;32.062;34.834;2023-03-08T17:54:14;14.93;;;4.03;;
75935;SDS011;64614;32.062;34.834;2023-03-08T18:00:04;15.15;;;3.72;;
75935;SDS011;64614;32.062;34.834;2023-03-08T18:08:30;16.08;;;4.78;;
75935;SDS011;64614;32.062;34.834;2023-03-08T18:10:56;11.55;;;3.60;;
75935;SDS011;64614;32.062;34.834;2023-03-08T18:13:23;13.15;;;3.40;;
75935;SDS011;64614;32.062;34.834;2023-03-08T18:15:50;15.32;;;3.67;;
75935;SDS011;64614;32.062;34.834;2023-03-08T18:18:18;14.30;;;3.40;;
75935;SDS011;64614;32.062;34.834;2023-03-08T18:25:56;13.88;;;3.45;;
75935;SDS011;64614;32.062;34.834;2023-03-08T18:30:57;7.72;;;2.95;;
75935;SDS011;64614;32.062;34.834;2023-03-08T18:33:23;10.35;;;3.20;;
75935;SDS011;64614;32.062;34.834;2023-03-08T18:35:56;8.43;;;2.65;;
75935;SDS011;64614;32.062;34.834;2023-03-08T18:38:23;8.73;;;2.60;;
75935;SDS011;64614;32.062;34.834;2023-03-08T18:40:49;8.98;;;2.70;;
75935;SDS011;64614;32.062;34.834;2023-03-08T18:43:15;10.13;;;2.60;;
75935;SDS011;64614;32.062;34.834;2023-03-08T19:03:48;11.82;;;2.92;;
75935;SDS011;64614;32.062;34.834;2023-03-08T19:16:27;10.63;;;2.60;;
75935;SDS011;64614;32.062;34.834;2023-03-08T19:18:56;8.63;;;2.50;;
75935;SDS011;64614;32.062;34.834;2023-03-08T19:21:27;12.75;;;3.03;;
75935;SDS011;64614;32.062;34.834;2023-03-08T19:26:33;8.82;;;3.15;;
75935;SDS011;64614;32.062;34.834;2023-03-08T19:31:37;6.90;;;2.72;;
75935;SDS011;64614;32.062;34.834;2023-03-08T19:34:06;9.57;;;2.70;;
75935;SDS011;64614;32.062;34.834;2023-03-08T19:36:34;7.65;;;2.38;;
75935;SDS011;64614;32.062;34.834;2023-03-08T19:47:11;9.15;;;2.50;;
75935;SDS011;64614;32.062;34.834;2023-03-08T19:49:37;6.43;;;2.30;;
75935;SDS011;64614;32.062;34.834;2023-03-08T19:54:39;7.22;;;2.83;;
75935;SDS011;64614;32.062;34.834;2023-03-08T20:02:16;6.55;;;2.53;;
75935;SDS011;64614;32.062;34.834;2023-03-08T20:07:18;5.32;;;2.40;;
75935;SDS011;64614;32.062;34.834;2023-03-08T20:09:44;5.50;;;2.22;;
75935;SDS011;64614;32.062;34.834;2023-03-08T20:12:10;6.45;;;2.40;;
75935;SDS011;64614;32.062;34.834;2023-03-08T20:14:36;7.35;;;2.58;;
75935;SDS011;64614;32.062;34.834;2023-03-08T20:19:58;7.82;;;2.50;;
75935;SDS011;64614;32.062;34.834;2023-03-08T20:22:24;6.15;;;2.28;;
75935;SDS011;64614;32.062;34.834;2023-03-08T20:24:49;7.18;;;2.03;;
75935;SDS011;64614;32.062;34.834;2023-03-08T20:27:15;6.72;;;2.45;;
75935;SDS011;64614;32.062;34.834;2023-03-08T20:34:52;76.45;;;34.58;;
75935;SDS011;64614;32.062;34.834;2023-03-08T20:37:22;122.28;;;54.97;;
75935;SDS011;64614;32.062;34.834;2023-03-08T20:39:51;219.55;;;97.80;;
75935;SDS011;64614;32.062;34.834;2023-03-08T20:44:54;347.80;;;158.93;;
75935;SDS011;64614;32.062;34.834;2023-03-08T20:47:19;421.55;;;211.80;;
75935;SDS011;64614;32.062;34.834;2023-03-08T20:54:56;619.85;;;327.10;;
75935;SDS011;64614;32.062;34.834;2023-03-08T20:57:33;589.53;;;313.15;;
75935;SDS011;64614;32.062;34.834;2023-03-08T20:59:59;518.00;;;276.23;;
75935;SDS011;64614;32.062;34.834;2023-03-08T21:02:36;495.13;;;253.98;;
75935;SDS011;64614;32.062;34.834;2023-03-08T21:18:34;305.52;;;133.35;;
75935;SDS011;64614;32.062;34.834;2023-03-08T21:23:35;259.20;;;119.80;;
75935;SDS011;64614;32.062;34.834;2023-03-08T21:26:02;234.30;;;110.55;;
75935;SDS011;64614;32.062;34.834;2023-03-08T21:28:27;218.65;;;104.28;;
75935;SDS011;64614;32.062;34.834;2023-03-08T21:31:09;203.07;;;96.60;;
75935;SDS011;64614;32.062;34.834;2023-03-08T21:50:39;127.20;;;56.85;;
75935;SDS011;64614;32.062;34.834;2023-03-08T21:53:06;126.20;;;59.78;;
75935;SDS011;64614;32.062;34.834;2023-03-08T22:00:42;107.97;;;50.95;;
75935;SDS011;64614;32.062;34.834;2023-03-08T22:03:08;103.22;;;48.72;;
75935;SDS011;64614;32.062;34.834;2023-03-08T22:13:51;88.28;;;41.53;;
75935;SDS011;64614;32.062;34.834;2023-03-08T22:16:19;87.30;;;41.38;;
75935;SDS011;64614;32.062;34.834;2023-03-08T22:18:45;79.63;;;37.33;;
75935;SDS011;64614;32.062;34.834;2023-03-08T22:21:12;77.68;;;37.78;;
75935;SDS011;64614;32.062;34.834;2023-03-08T22:23:38;69.15;;;35.42;;
75935;SDS011;64614;32.062;34.834;2023-03-08T22:26:07;72.38;;;35.40;;
75935;SDS011;64614;32.062;34.834;2023-03-08T22:28:34;79.43;;;35.45;;
75935;SDS011;64614;32.062;34.834;2023-03-08T22:31:06;69.40;;;34.58;;
75935;SDS011;64614;32.062;34.834;2023-03-08T22:33:52;63.50;;;33.42;;
75935;SDS011;64614;32.062;34.834;2023-03-08T22:36:19;63.22;;;30.77;;
75935;SDS011;64614;32.062;34.834;2023-03-08T22:47:13;53.05;;;26.80;;
75935;SDS011;64614;32.062;34.834;2023-03-08T22:49:40;51.55;;;26.27;;
75935;SDS011;64614;32.062;34.834;2023-03-08T22:52:06;54.15;;;26.10;;
75935;SDS011;64614;32.062;34.834;2023-03-08T22:54:50;48.05;;;24.20;;
75935;SDS011;64614;32.062;34.834;2023-03-08T22:57:15;50.20;;;25.77;;
75935;SDS011;64614;32.062;34.834;2023-03-08T23:00:01;47.17;;;24.33;;
75935;SDS011;64614;32.062;34.834;2023-03-08T23:02:26;45.40;;;21.42;;
75935;SDS011;64614;32.062;34.834;2023-03-08T23:11:19;41.10;;;21.58;;
75935;SDS011;64614;32.062;34.834;2023-03-08T23:13:48;41.08;;;20.52;;
75935;SDS011;64614;32.062;34.834;2023-03-08T23:46:17;30.05;;;14.25;;
75935;SDS011;64614;32.062;34.834;2023-03-08T23:48:44;28.67;;;14.85;;
75935;SDS011;64614;32.062;34.834;2023-03-08T23:51:12;29.02;;;14.20;;
